Time;durP1;ratioP1;P1;durP2;ratioP2;P2;SDS_P1;SDS_P2;PMS_P1;PMS_P2;Temp;Humidity;BMP_temperature;BMP_pressure;BME280_temperature;BME280_humidity;BME280_pressure;Samples;Min_cycle;Max_cycle;Signal;HPM_P1;HPM_P2
2021/11/28 00:00:08;;;;;;;11.93;6.90;;;2.60;93.70;;;;;;5056343;28;20021;-84
2021/11/28 00:02:37;;;;;;;10.45;6.45;;;2.60;93.70;;;;;;5056195;28;20016;-84
2021/11/28 00:05:09;;;;;;;9.95;6.57;;;2.70;92.90;;;;;;5063559;28;20048;-84
2021/11/28 00:13:08;;;;;;;10.80;6.53;;;3.30;91.00;;;;;;5091968;28;20066;-84
2021/11/28 00:15:39;;;;;;;11.00;7.28;;;3.30;92.50;;;;;;5070578;28;20032;-84
2021/11/28 00:18:07;;;;;;;13.50;7.65;;;3.40;92.20;;;;;;5087187;28;20085;-83
2021/11/28 00:20:37;;;;;;;11.38;7.97;;;3.50;90.70;;;;;;5085658;28;20051;-84
2021/11/28 00:23:05;;;;;;;11.15;7.28;;;3.50;90.10;;;;;;5085954;28;20502;-85
2021/11/28 00:25:32;;;;;;;12.02;7.68;;;3.50;92.20;;;;;;5086753;28;20032;-83
2021/11/28 00:27:58;;;;;;;11.05;7.30;;;3.50;91.40;;;;;;5092450;28;20020;-84
2021/11/28 00:30:27;;;;;;;11.23;7.32;;;3.50;91.60;;;;;;5087001;28;20437;-84
2021/11/28 00:32:54;;;;;;;9.05;6.53;;;3.60;92.00;;;;;;5086971;28;20096;-84
2021/11/28 00:35:22;;;;;;;9.80;6.60;;;3.60;91.30;;;;;;5087460;28;20103;-86
2021/11/28 00:37:48;;;;;;;8.43;5.68;;;3.60;91.30;;;;;;5085785;28;20021;-84
2021/11/28 00:40:15;;;;;;;9.23;6.47;;;3.60;90.90;;;;;;5091417;28;20577;-85
2021/11/28 00:42:44;;;;;;;8.98;6.50;;;3.80;90.90;;;;;;5087912;28;20024;-84
2021/11/28 00:45:10;;;;;;;10.13;6.50;;;3.50;91.50;;;;;;5085027;28;20024;-84
2021/11/28 00:47:36;;;;;;;11.00;6.97;;;3.60;97.00;;;;;;5086700;28;20038;-84
2021/11/28 00:52:40;;;;;;;8.82;6.63;;;3.70;91.50;;;;;;5055674;28;20021;-84
2021/11/28 00:55:13;;;;;;;11.48;6.80;;;3.70;91.10;;;;;;5067056;28;20021;-86
2021/11/28 00:57:46;;;;;;;9.95;6.57;;;3.80;91.20;;;;;;5086116;28;20489;-84
2021/11/28 01:00:15;;;;;;;10.18;6.45;;;3.90;91.00;;;;;;5087167;28;20110;-85
2021/11/28 01:02:53;;;;;;;8.73;5.30;;;3.90;91.20;;;;;;5084963;28;20085;-85
2021/11/28 01:05:21;;;;;;;9.93;6.43;;;3.90;91.00;;;;;;5080734;28;20055;-85
2021/11/28 01:07:47;;;;;;;10.00;7.60;;;3.90;90.50;;;;;;5086111;28;20029;-84
2021/11/28 01:10:13;;;;;;;9.05;7.07;;;3.80;90.00;;;;;;5091258;28;20105;-83
2021/11/28 01:12:41;;;;;;;10.57;6.82;;;3.70;90.20;;;;;;5077059;28;20383;-85
2021/11/28 01:15:09;;;;;;;11.05;6.97;;;3.60;87.00;;;;;;5086425;28;20035;-84
2021/11/28 01:17:38;;;;;;;7.97;6.40;;;3.60;91.50;;;;;;5085784;28;20500;-84
2021/11/28 01:20:07;;;;;;;10.27;6.72;;;3.50;91.40;;;;;;5067061;28;20386;-84
2021/11/28 01:22:33;;;;;;;9.68;6.90;;;3.40;92.40;;;;;;5086779;28;20095;-84
2021/11/28 01:24:59;;;;;;;11.93;7.32;;;3.40;91.90;;;;;;5091938;28;20028;-84
2021/11/28 01:27:29;;;;;;;9.43;7.32;;;3.40;90.90;;;;;;5085660;28;20028;-85
2021/11/28 01:29:56;;;;;;;11.70;7.80;;;3.40;92.10;;;;;;5085827;28;20032;-84
2021/11/28 01:32:25;;;;;;;10.38;6.57;;;3.30;92.00;;;;;;5085535;28;20515;-84
2021/11/28 01:34:50;;;;;;;8.98;6.30;;;3.20;92.40;;;;;;5067219;28;20029;-84
2021/11/28 01:37:16;;;;;;;9.73;6.63;;;3.20;92.40;;;;;;5089972;28;20134;-84
2021/11/28 01:39:45;;;;;;;12.75;7.43;;;3.30;92.60;;;;;;5078288;28;20586;-84
2021/11/28 01:42:13;;;;;;;11.20;7.43;;;3.30;91.80;;;;;;5084281;28;20020;-84
2021/11/28 01:44:40;;;;;;;11.75;7.47;;;3.30;92.60;;;;;;5084132;28;20392;-84
2021/11/28 01:47:05;;;;;;;10.80;7.90;;;3.40;91.60;;;;;;5085911;28;20020;-83
2021/11/28 01:49:32;;;;;;;10.40;7.47;;;3.50;92.60;;;;;;5086783;28;20036;-84
2021/11/28 01:51:58;;;;;;;9.68;6.68;;;3.50;92.50;;;;;;5090600;28;20055;-84
2021/11/28 01:54:27;;;;;;;10.60;7.15;;;3.50;91.70;;;;;;5085738;28;20082;-84
2021/11/28 01:56:54;;;;;;;13.23;10.02;;;3.60;90.00;;;;;;5085002;28;20020;-84
2021/11/28 01:59:21;;;;;;;9.95;7.53;;;3.70;92.70;;;;;;5085585;28;20032;-84
2021/11/28 02:01:48;;;;;;;11.50;7.60;;;3.70;92.00;;;;;;5068521;28;20021;-84
2021/11/28 02:04:20;;;;;;;15.07;8.60;;;3.60;92.10;;;;;;5071721;28;20789;-84
2021/11/28 02:06:49;;;;;;;15.95;11.73;;;3.70;91.90;;;;;;5076243;28;20043;-84
2021/11/28 02:09:15;;;;;;;18.85;12.32;;;3.70;92.00;;;;;;5073826;28;20036;-84
2021/11/28 02:11:43;;;;;;;17.13;11.63;;;3.80;91.80;;;;;;5068104;28;20020;-84
2021/11/28 02:14:09;;;;;;;24.73;17.92;;;3.80;92.40;;;;;;5076622;28;20017;-84
2021/11/28 02:16:35;;;;;;;8.27;6.75;;;3.90;91.70;;;;;;5053290;28;20028;-83
2021/11/28 02:19:01;;;;;;;8.90;6.65;;;3.90;91.70;;;;;;5075928;28;20028;-84
2021/11/28 02:21:27;;;;;;;9.73;6.97;;;3.90;91.40;;;;;;5072844;28;20020;-84
2021/11/28 02:23:53;;;;;;;11.60;8.20;;;3.90;91.30;;;;;;5073726;28;20051;-84
2021/11/28 02:26:18;;;;;;;14.80;10.75;;;3.90;91.40;;;;;;5067204;28;20035;-84
2021/11/28 02:28:46;;;;;;;11.93;7.75;;;3.90;91.30;;;;;;5070157;28;20056;-82
2021/11/28 02:31:12;;;;;;;11.40;7.30;;;3.90;91.70;;;;;;5069743;28;20452;-83
2021/11/28 02:33:41;;;;;;;8.70;7.00;;;3.90;92.60;;;;;;5074303;28;20025;-82
2021/11/28 02:36:10;;;;;;;10.50;6.85;;;4.00;91.80;;;;;;5073466;28;20012;-84
2021/11/28 02:38:36;;;;;;;10.73;6.78;;;4.00;87.00;;;;;;5073383;28;20044;-83
2021/11/28 02:41:02;;;;;;;7.50;6.47;;;4.10;91.00;;;;;;5072343;28;20059;-85
2021/11/28 02:43:30;;;;;;;9.77;6.95;;;4.70;91.30;;;;;;5069552;28;20033;-84
2021/11/28 02:45:58;;;;;;;9.00;6.13;;;4.10;91.90;;;;;;5075411;28;20052;-85
2021/11/28 02:48:23;;;;;;;8.07;6.28;;;4.10;92.10;;;;;;5063991;28;20025;-84
2021/11/28 02:50:49;;;;;;;8.55;5.78;;;4.10;91.10;;;;;;5073750;28;20086;-84
2021/11/28 02:53:16;;;;;;;8.80;5.75;;;4.10;91.20;;;;;;5073812;28;20541;-85
2021/11/28 02:55:45;;;;;;;8.52;5.82;;;4.00;92.20;;;;;;5069560;28;20504;-84
2021/11/28 02:58:13;;;;;;;7.63;6.05;;;4.20;92.60;;;;;;5073706;28;20474;-84
2021/11/28 03:00:45;;;;;;;8.18;6.18;;;4.10;92.10;;;;;;5075760;28;20500;-84
2021/11/28 03:03:11;;;;;;;12.32;8.90;;;4.00;92.20;;;;;;5075447;28;20032;-84
2021/11/28 03:05:37;;;;;;;11.02;8.65;;;4.00;91.10;;;;;;5083388;28;20420;-84
2021/11/28 03:08:03;;;;;;;9.85;7.82;;;4.00;91.50;;;;;;5076061;28;20496;-84
2021/11/28 03:10:28;;;;;;;9.88;7.93;;;4.00;91.60;;;;;;5089754;28;20409;-85
2021/11/28 03:12:55;;;;;;;9.82;7.53;;;4.10;92.20;;;;;;5077347;28;20484;-84
2021/11/28 03:15:22;;;;;;;7.80;6.72;;;4.50;92.40;;;;;;5077010;28;20037;-83
2021/11/28 03:17:48;;;;;;;8.50;6.90;;;4.10;92.70;;;;;;5075244;28;20107;-84
2021/11/28 03:20:15;;;;;;;7.72;6.47;;;4.10;92.10;;;;;;5076879;28;20100;-84
2021/11/28 03:22:48;;;;;;;8.20;6.28;;;3.90;92.40;;;;;;5073149;28;20445;-83
2021/11/28 03:25:16;;;;;;;9.20;6.72;;;3.90;93.00;;;;;;5076296;28;20025;-84
2021/11/28 03:27:43;;;;;;;8.35;6.50;;;4.00;92.60;;;;;;5069620;28;20484;-84
2021/11/28 03:30:10;;;;;;;9.80;6.90;;;4.00;92.30;;;;;;5076701;28;20036;-84
2021/11/28 03:32:35;;;;;;;8.32;6.70;;;4.10;92.90;;;;;;5076615;28;20090;-83
2021/11/28 03:35:02;;;;;;;7.63;6.45;;;4.00;92.20;;;;;;5071361;28;20056;-83
2021/11/28 03:37:28;;;;;;;10.25;6.50;;;4.00;93.00;;;;;;5072951;28;20028;-84
2021/11/28 03:39:54;;;;;;;8.13;6.63;;;4.00;93.20;;;;;;5077405;28;20047;-84
2021/11/28 03:42:19;;;;;;;10.02;6.22;;;3.90;92.30;;;;;;5076235;28;20505;-84
2021/11/28 03:44:45;;;;;;;6.57;5.68;;;3.90;92.30;;;;;;5064078;28;20035;-83
2021/11/28 03:47:11;;;;;;;8.07;6.10;;;3.80;92.10;;;;;;5076262;28;20016;-82
2021/11/28 03:49:36;;;;;;;6.75;5.32;;;3.80;92.60;;;;;;5072424;28;20402;-84
2021/11/28 03:52:03;;;;;;;7.97;6.25;;;3.90;92.90;;;;;;5078707;28;20419;-84
2021/11/28 03:54:29;;;;;;;8.25;6.22;;;3.90;92.90;;;;;;5074528;28;20028;-83
2021/11/28 03:56:55;;;;;;;7.10;5.97;;;3.90;92.90;;;;;;5075782;28;20394;-83
2021/11/28 03:59:21;;;;;;;8.48;5.75;;;3.90;92.40;;;;;;5076764;28;20066;-83
2021/11/28 04:01:48;;;;;;;9.77;6.45;;;3.90;92.80;;;;;;5071862;28;20052;-83
2021/11/28 04:04:13;;;;;;;8.55;6.20;;;3.90;93.20;;;;;;5089037;28;20016;-84
2021/11/28 04:06:41;;;;;;;7.82;5.63;;;4.40;92.90;;;;;;5085109;28;20051;-84
2021/11/28 04:09:07;;;;;;;7.10;5.45;;;3.90;93.30;;;;;;5079336;28;20032;-84
2021/11/28 04:11:33;;;;;;;5.95;5.15;;;3.90;93.10;;;;;;5075310;28;20089;-84
2021/11/28 04:13:59;;;;;;;7.97;5.32;;;4.00;93.10;;;;;;5074409;28;20024;-84
2021/11/28 04:16:25;;;;;;;7.57;4.80;;;4.20;93.60;;;;;;5072048;28;20071;-84
2021/11/28 04:18:50;;;;;;;9.18;4.75;;;3.90;92.50;;;;;;5077624;28;20512;-83
2021/11/28 04:21:16;;;;;;;7.40;5.30;;;3.80;92.40;;;;;;5073839;28;20024;-83
2021/11/28 04:23:42;;;;;;;6.78;4.75;;;3.80;93.00;;;;;;5082743;28;20048;-84
2021/11/28 04:26:08;;;;;;;6.93;5.07;;;3.80;92.30;;;;;;5073719;28;20093;-84
2021/11/28 04:28:33;;;;;;;5.50;4.90;;;3.80;92.50;;;;;;5069816;28;20095;-84
2021/11/28 04:30:59;;;;;;;5.85;4.95;;;3.90;93.00;;;;;;5077031;28;20044;-84
2021/11/28 04:33:25;;;;;;;7.30;4.80;;;3.80;93.20;;;;;;5075467;28;20424;-84
2021/11/28 04:35:51;;;;;;;6.75;5.07;;;3.80;93.90;;;;;;5065220;28;20024;-84
2021/11/28 04:38:17;;;;;;;6.78;5.00;;;3.90;93.00;;;;;;5073770;28;20537;-83
2021/11/28 04:40:42;;;;;;;8.15;5.10;;;3.90;98.80;;;;;;5071109;28;20028;-84
2021/11/28 04:43:08;;;;;;;8.10;5.40;;;4.00;92.80;;;;;;5076105;28;20016;-83
2021/11/28 04:45:33;;;;;;;7.78;5.57;;;4.30;93.10;;;;;;5083188;28;20492;-83
2021/11/28 04:47:59;;;;;;;5.43;4.35;;;4.00;93.30;;;;;;5079970;28;20043;-84
2021/11/28 04:50:25;;;;;;;6.90;5.28;;;4.20;93.00;;;;;;5074768;28;20036;-83
2021/11/28 04:52:51;;;;;;;6.40;4.53;;;4.10;93.00;;;;;;5073566;28;20024;-84
2021/11/28 04:55:17;;;;;;;5.57;4.65;;;4.00;92.90;;;;;;5073990;28;20035;-84
2021/11/28 04:57:43;;;;;;;6.13;4.72;;;4.20;93.20;;;;;;5074497;28;20024;-83
2021/11/28 05:00:15;;;;;;;5.22;4.20;;;4.00;92.80;;;;;;5073168;28;20021;-84
2021/11/28 05:02:41;;;;;;;6.05;4.10;;;4.00;93.40;;;;;;5074589;28;20385;-83
2021/11/28 05:05:08;;;;;;;6.47;4.60;;;4.00;92.90;;;;;;5068309;28;20097;-84
2021/11/28 05:07:33;;;;;;;6.85;4.35;;;4.00;93.30;;;;;;5049837;28;20128;-84
2021/11/28 05:09:59;;;;;;;5.63;4.70;;;4.00;92.70;;;;;;5056393;28;20115;-83
2021/11/28 05:12:24;;;;;;;7.07;5.00;;;4.00;92.80;;;;;;5054578;28;20032;-84
2021/11/28 05:14:53;;;;;;;5.95;4.50;;;4.00;93.30;;;;;;5054734;28;20452;-83
2021/11/28 05:17:19;;;;;;;6.53;4.75;;;4.00;92.90;;;;;;5053185;28;20095;-84
2021/11/28 05:19:45;;;;;;;5.88;4.68;;;4.10;93.50;;;;;;5052314;28;20071;-83
2021/11/28 05:22:10;;;;;;;6.28;4.40;;;4.10;93.00;;;;;;5054461;28;20501;-84
2021/11/28 05:24:36;;;;;;;7.35;5.45;;;4.10;92.00;;;;;;5053694;28;20501;-83
2021/11/28 05:27:02;;;;;;;6.85;5.10;;;4.50;93.70;;;;;;5054688;28;20086;-83
2021/11/28 05:29:28;;;;;;;6.53;5.57;;;4.00;92.70;;;;;;5057114;28;20042;-84
2021/11/28 05:31:53;;;;;;;6.35;4.68;;;4.20;92.90;;;;;;5066071;28;20028;-83
2021/11/28 05:34:19;;;;;;;6.57;4.80;;;4.00;92.10;;;;;;5053042;28;20028;-84
2021/11/28 05:36:45;;;;;;;6.22;5.00;;;4.00;92.30;;;;;;5053562;28;20083;-84
2021/11/28 05:39:10;;;;;;;4.22;3.78;;;4.10;92.50;;;;;;5054179;28;20017;-83
2021/11/28 05:41:36;;;;;;;4.10;3.70;;;4.00;91.80;;;;;;5054944;28;20033;-83
2021/11/28 05:44:02;;;;;;;4.30;3.90;;;4.00;91.70;;;;;;5051460;28;20012;-83
2021/11/28 05:46:28;;;;;;;5.18;4.10;;;4.00;91.80;;;;;;5050918;28;20579;-83
2021/11/28 05:48:53;;;;;;;6.28;4.40;;;4.10;91.60;;;;;;5055800;28;20029;-82
2021/11/28 05:51:19;;;;;;;3.55;2.90;;;4.20;92.00;;;;;;5052875;28;20025;-83
2021/11/28 05:53:44;;;;;;;3.83;3.30;;;4.40;91.60;;;;;;5053800;28;20036;-83
2021/11/28 05:56:10;;;;;;;4.03;3.45;;;3.90;91.80;;;;;;5054098;28;20507;-83
2021/11/28 05:58:36;;;;;;;3.80;3.40;;;3.80;91.20;;;;;;5049701;28;20025;-83
2021/11/28 06:01:01;;;;;;;3.20;2.90;;;3.60;91.80;;;;;;5055981;28;20018;-83
2021/11/28 06:03:27;;;;;;;5.10;3.25;;;3.40;92.30;;;;;;5053669;28;20033;-84
2021/11/28 06:05:53;;;;;;;4.00;3.40;;;3.50;92.60;;;;;;5054080;28;20045;-83
2021/11/28 06:08:19;;;;;;;4.32;3.33;;;3.60;92.40;;;;;;5053717;28;20115;-82
2021/11/28 06:10:45;;;;;;;4.05;3.60;;;3.50;92.30;;;;;;5050532;28;20108;-83
2021/11/28 06:13:10;;;;;;;4.53;4.00;;;3.50;92.40;;;;;;5054343;28;20032;-84
2021/11/28 06:15:36;;;;;;;4.35;3.95;;;3.50;92.30;;;;;;5053246;28;20025;-83
2021/11/28 06:18:02;;;;;;;4.13;3.72;;;4.00;92.10;;;;;;5052483;28;20020;-83
2021/11/28 06:20:27;;;;;;;4.43;3.75;;;3.60;92.70;;;;;;5051897;28;20397;-83
2021/11/28 06:22:53;;;;;;;4.57;3.30;;;3.70;92.50;;;;;;5064790;28;20511;-83
2021/11/28 06:25:20;;;;;;;3.72;3.40;;;3.70;92.00;;;;;;5052134;28;20032;-84
2021/11/28 06:27:45;;;;;;;4.70;4.22;;;3.60;92.80;;;;;;5069074;28;20039;-82
2021/11/28 06:30:11;;;;;;;5.97;3.92;;;3.60;92.00;;;;;;5055871;28;20028;-83
2021/11/28 06:32:37;;;;;;;4.30;3.78;;;3.50;92.20;;;;;;5043564;28;20056;-83
2021/11/28 06:35:09;;;;;;;4.88;3.90;;;3.60;92.90;;;;;;5050034;28;20495;-84
2021/11/28 06:37:35;;;;;;;4.78;3.95;;;3.80;91.50;;;;;;5031569;28;20119;-83
2021/11/28 06:40:01;;;;;;;4.28;3.65;;;3.70;91.70;;;;;;5058674;28;20113;-83
2021/11/28 06:42:27;;;;;;;3.72;3.20;;;4.00;93.00;;;;;;5056223;28;20025;-82
2021/11/28 06:44:53;;;;;;;4.60;4.00;;;3.70;92.10;;;;;;5055898;28;20031;-81
2021/11/28 06:47:18;;;;;;;4.22;3.80;;;3.50;92.70;;;;;;5057099;28;20024;-82
2021/11/28 06:49:44;;;;;;;5.72;4.30;;;3.50;92.40;;;;;;5053861;28;20090;-83
2021/11/28 06:52:10;;;;;;;6.78;6.07;;;3.50;92.30;;;;;;5057235;28;20401;-83
2021/11/28 06:54:35;;;;;;;12.43;10.07;;;3.50;92.00;;;;;;5056797;28;20540;-83
2021/11/28 06:57:01;;;;;;;14.50;11.55;;;3.50;92.10;;;;;;5057146;28;20086;-83
2021/11/28 06:59:27;;;;;;;11.38;9.23;;;3.50;92.00;;;;;;5056644;28;20091;-81
2021/11/28 07:01:52;;;;;;;8.95;7.40;;;3.40;92.20;;;;;;5054914;28;20580;-83
2021/11/28 07:04:18;;;;;;;7.30;5.90;;;3.50;92.20;;;;;;5054846;28;20776;-81
2021/11/28 07:06:44;;;;;;;8.02;6.47;;;3.50;92.60;;;;;;5058373;28;20132;-83
2021/11/28 07:09:09;;;;;;;8.85;5.97;;;3.50;92.50;;;;;;5057164;28;20025;-82
2021/11/28 07:11:35;;;;;;;7.63;6.15;;;3.50;92.60;;;;;;5048000;28;20405;-82
2021/11/28 07:14:01;;;;;;;7.07;6.32;;;3.50;92.50;;;;;;5055790;28;20032;-83
2021/11/28 07:16:26;;;;;;;7.57;6.53;;;3.80;92.40;;;;;;5053113;28;20064;-83
2021/11/28 07:18:52;;;;;;;6.93;5.95;;;3.70;92.30;;;;;;5057916;28;20021;-82
2021/11/28 07:21:18;;;;;;;8.75;6.45;;;3.40;92.90;;;;;;5056484;28;20021;-83
2021/11/28 07:23:48;;;;;;;7.18;5.80;;;3.40;92.30;;;;;;5056836;28;20033;-83
2021/11/28 07:26:14;;;;;;;8.88;5.65;;;3.40;93.30;;;;;;5056488;28;20046;-82
2021/11/28 07:28:40;;;;;;;9.73;7.30;;;3.40;93.10;;;;;;5052470;28;20457;-82
2021/11/28 07:31:07;;;;;;;10.13;7.38;;;3.40;92.90;;;;;;5057920;28;20029;-83
2021/11/28 07:33:36;;;;;;;11.23;8.02;;;3.50;98.20;;;;;;5056058;28;20059;-83
2021/11/28 07:36:06;;;;;;;10.63;7.28;;;3.50;93.00;;;;;;5054753;28;20108;-83
2021/11/28 07:38:33;;;;;;;13.00;9.93;;;3.50;93.30;;;;;;5056653;28;20032;-83
2021/11/28 07:40:59;;;;;;;14.98;10.52;;;3.50;93.20;;;;;;5055182;28;20024;-83
2021/11/28 07:43:25;;;;;;;16.73;10.55;;;3.60;92.70;;;;;;5052850;28;20037;-83
2021/11/28 07:45:51;;;;;;;16.08;10.88;;;3.90;91.70;;;;;;5058049;28;20027;-83
2021/11/28 07:48:17;;;;;;;9.27;7.97;;;3.50;91.90;;;;;;5055683;28;20036;-82
2021/11/28 07:50:42;;;;;;;9.45;6.90;;;3.60;91.80;;;;;;5054670;28;20468;-83
2021/11/28 07:53:08;;;;;;;10.93;8.98;;;3.40;91.90;;;;;;5056401;28;20032;-83
2021/11/28 07:55:34;;;;;;;8.25;7.22;;;3.50;91.70;;;;;;5051526;28;20144;-83
2021/11/28 07:58:01;;;;;;;10.52;8.57;;;3.90;92.00;;;;;;5058020;28;20025;-83
2021/11/28 08:00:27;;;;;;;10.07;8.73;;;3.60;98.20;;;;;;5055668;28;20275;-83
2021/11/28 08:02:53;;;;;;;11.48;8.52;;;3.70;92.00;;;;;;5056454;28;20029;-83
2021/11/28 08:05:19;;;;;;;9.32;7.68;;;3.60;91.20;;;;;;5055837;28;20075;-83
2021/11/28 08:07:44;;;;;;;8.63;7.10;;;3.80;91.70;;;;;;5052373;28;20040;-83
2021/11/28 08:10:10;;;;;;;15.63;7.72;;;3.70;92.20;;;;;;5056004;28;20044;-82
2021/11/28 08:12:36;;;;;;;11.13;6.20;;;3.60;91.70;;;;;;5054812;28;20108;-83
2021/11/28 08:15:05;;;;;;;12.43;6.15;;;3.50;92.30;;;;;;5054336;28;20021;-83
2021/11/28 08:17:34;;;;;;;11.25;7.32;;;3.50;92.60;;;;;;5055194;28;20405;-83
2021/11/28 08:20:00;;;;;;;7.20;5.88;;;3.50;92.30;;;;;;5054231;28;20031;-83
2021/11/28 08:22:25;;;;;;;9.07;7.30;;;3.50;92.00;;;;;;5052573;28;20386;-83
2021/11/28 08:24:51;;;;;;;9.43;7.20;;;4.00;91.60;;;;;;5057806;28;20564;-83
2021/11/28 08:27:18;;;;;;;10.80;8.10;;;3.60;92.20;;;;;;5055246;28;20028;-83
2021/11/28 08:29:44;;;;;;;13.20;10.77;;;3.70;92.30;;;;;;5043700;28;20032;-83
2021/11/28 08:32:10;;;;;;;12.50;7.88;;;3.70;92.30;;;;;;5055167;28;20025;-83
2021/11/28 08:34:37;;;;;;;11.20;7.20;;;3.70;91.90;;;;;;5051085;28;20405;-83
2021/11/28 08:37:04;;;;;;;10.13;6.68;;;3.80;91.70;;;;;;5064492;28;20074;-83
2021/11/28 08:39:31;;;;;;;9.52;7.90;;;3.80;92.30;;;;;;5055113;28;20035;-83
2021/11/28 08:41:56;;;;;;;14.55;11.82;;;3.90;92.60;;;;;;5054880;28;20481;-83
2021/11/28 08:44:22;;;;;;;9.80;8.27;;;4.00;92.00;;;;;;5055207;28;20028;-83
2021/11/28 08:46:48;;;;;;;12.23;9.80;;;3.80;91.60;;;;;;5051683;28;20070;-83
2021/11/28 08:49:14;;;;;;;9.02;6.53;;;3.90;92.30;;;;;;5054300;28;20505;-83
2021/11/28 08:51:40;;;;;;;7.45;5.70;;;3.80;91.60;;;;;;5054827;28;20040;-83
2021/11/28 08:54:06;;;;;;;10.85;6.88;;;3.80;91.80;;;;;;5053691;28;20025;-82
2021/11/28 08:56:31;;;;;;;13.68;8.55;;;3.80;92.40;;;;;;5054645;28;20494;-83
2021/11/28 08:58:57;;;;;;;15.02;9.20;;;3.70;91.80;;;;;;5053122;28;20052;-83
2021/11/28 09:01:23;;;;;;;13.70;8.32;;;4.00;92.00;;;;;;5051573;28;20041;-83
2021/11/28 09:03:48;;;;;;;11.73;8.75;;;4.00;92.00;;;;;;5056552;28;20040;-83
2021/11/28 09:06:14;;;;;;;13.95;9.93;;;3.70;91.60;;;;;;5054764;28;20059;-83
2021/11/28 09:08:40;;;;;;;17.02;11.30;;;3.80;92.10;;;;;;5054807;28;20025;-83
2021/11/28 09:11:06;;;;;;;16.15;10.98;;;3.70;91.70;;;;;;5053950;28;20397;-83
2021/11/28 09:13:33;;;;;;;13.13;10.10;;;3.90;91.60;;;;;;5050286;28;20032;-83
2021/11/28 09:15:59;;;;;;;12.07;9.45;;;4.00;92.00;;;;;;5056094;28;20021;-84
2021/11/28 09:18:35;;;;;;;10.32;8.10;;;4.10;92.10;;;;;;5055224;28;20067;-84
2021/11/28 09:21:01;;;;;;;12.27;7.38;;;4.40;91.60;;;;;;5052724;28;20032;-83
2021/11/28 09:26:12;;;;;;;7.68;6.03;;;4.10;91.70;;;;;;5054292;28;20091;-84
2021/11/28 09:28:39;;;;;;;8.93;6.35;;;4.40;91.30;;;;;;5049329;28;20021;-83
2021/11/28 09:31:09;;;;;;;8.60;6.40;;;4.20;91.60;;;;;;5063278;28;20071;-83
2021/11/28 09:33:35;;;;;;;7.13;5.93;;;4.10;91.90;;;;;;5052190;28;20028;-84
2021/11/28 09:36:01;;;;;;;5.90;5.10;;;4.00;91.80;;;;;;5052458;28;20032;-84
2021/11/28 09:38:26;;;;;;;7.32;4.72;;;4.10;90.50;;;;;;5054143;28;20040;-84
2021/11/28 09:40:53;;;;;;;12.18;9.10;;;4.70;91.00;;;;;;5051948;28;20040;-83
2021/11/28 09:43:19;;;;;;;10.23;7.53;;;4.50;91.90;;;;;;5048769;28;20466;-84
2021/11/28 09:45:45;;;;;;;9.40;6.07;;;4.10;91.10;;;;;;5055561;28;20029;-83
2021/11/28 09:48:12;;;;;;;14.57;7.63;;;4.20;91.20;;;;;;5053937;28;20127;-83
2021/11/28 09:50:38;;;;;;;11.25;6.47;;;4.40;92.00;;;;;;5053868;28;20116;-84
2021/11/28 09:53:06;;;;;;;7.43;5.05;;;4.20;91.70;;;;;;5053223;28;20028;-84
2021/11/28 09:55:32;;;;;;;6.07;4.57;;;4.30;91.50;;;;;;5050252;28;20021;-83
2021/11/28 09:57:58;;;;;;;3.63;3.22;;;4.20;92.00;;;;;;5049442;28;20111;-83
2021/11/28 10:00:25;;;;;;;5.43;3.65;;;4.10;90.90;;;;;;5053732;28;20033;-83
2021/11/28 10:02:51;;;;;;;5.13;3.67;;;4.10;91.80;;;;;;5054255;28;20511;-83
2021/11/28 10:05:16;;;;;;;5.78;4.40;;;4.00;91.50;;;;;;5053602;28;20049;-84
2021/11/28 10:07:44;;;;;;;5.93;4.15;;;4.00;91.40;;;;;;5048692;28;20104;-83
2021/11/28 10:10:12;;;;;;;8.10;5.18;;;3.90;92.30;;;;;;5053923;28;20041;-83
2021/11/28 10:12:42;;;;;;;8.75;4.93;;;3.80;98.30;;;;;;5053374;28;20056;-83
2021/11/28 10:15:15;;;;;;;7.50;5.13;;;3.70;92.30;;;;;;5057486;28;20017;-83
2021/11/28 10:17:41;;;;;;;24.35;13.05;;;3.70;92.20;;;;;;5057915;28;20028;-83
2021/11/28 10:20:14;;;;;;;15.80;9.98;;;3.50;91.90;;;;;;5057199;28;20095;-84
2021/11/28 10:22:40;;;;;;;6.18;5.40;;;3.90;92.60;;;;;;5037966;28;20025;-84
2021/11/28 10:25:16;;;;;;;4.88;4.00;;;3.70;92.20;;;;;;5059202;28;20020;-83
2021/11/28 10:27:41;;;;;;;4.53;3.70;;;3.60;92.40;;;;;;5058834;28;20033;-84
2021/11/28 10:30:16;;;;;;;4.20;3.22;;;3.70;91.90;;;;;;5057805;28;20040;-84
2021/11/28 10:32:49;;;;;;;4.88;4.20;;;3.80;92.40;;;;;;5057458;28;20100;-84
2021/11/28 10:35:15;;;;;;;4.10;3.70;;;3.90;92.30;;;;;;5056193;28;20481;-83
2021/11/28 10:37:44;;;;;;;6.55;5.95;;;4.00;91.80;;;;;;5053414;28;20359;-84
2021/11/28 10:40:21;;;;;;;6.18;5.30;;;4.00;91.80;;;;;;5058093;28;20512;-84
2021/11/28 10:42:50;;;;;;;6.15;5.03;;;4.10;91.60;;;;;;5055865;28;20020;-84
2021/11/28 10:45:18;;;;;;;5.95;5.35;;;4.20;91.50;;;;;;5057402;28;20036;-84
2021/11/28 10:47:50;;;;;;;5.13;4.63;;;4.60;91.80;;;;;;5055857;28;20025;-83
2021/11/28 10:50:25;;;;;;;6.18;4.53;;;4.40;91.70;;;;;;5055432;28;20123;-83
2021/11/28 10:53:15;;;;;;;4.45;3.20;;;4.50;91.20;;;;;;5054503;28;20021;-84
2021/11/28 10:55:46;;;;;;;9.05;5.03;;;4.50;91.40;;;;;;5036057;28;20493;-84
2021/11/28 10:58:25;;;;;;;6.70;3.92;;;4.50;91.60;;;;;;5057266;28;20013;-84
2021/11/28 11:00:50;;;;;;;11.65;5.10;;;4.50;91.60;;;;;;5056423;28;20501;-84
2021/11/28 11:03:30;;;;;;;5.90;4.28;;;3.70;92.20;;;;;;5056706;28;20028;-84
2021/11/28 11:06:17;;;;;;;5.75;4.40;;;3.80;93.20;;;;;;5056831;28;20083;-84
2021/11/28 11:08:44;;;;;;;4.72;4.25;;;3.90;92.60;;;;;;5056916;28;20082;-84
2021/11/28 11:11:13;;;;;;;5.18;3.95;;;4.20;92.20;;;;;;5056848;28;20024;-84
2021/11/28 11:14:00;;;;;;;4.93;3.70;;;4.40;91.70;;;;;;5036931;28;20025;-83
2021/11/28 11:16:34;;;;;;;3.65;3.30;;;4.50;91.70;;;;;;5053602;28;20033;-84
2021/11/28 11:19:35;;;;;;;4.55;3.15;;;4.40;91.50;;;;;;5058803;28;20024;-84
2021/11/28 11:22:15;;;;;;;7.13;4.20;;;4.50;91.60;;;;;;5058086;28;20033;-84
2021/11/28 11:24:49;;;;;;;6.90;5.78;;;4.40;91.70;;;;;;5057751;28;20039;-84
2021/11/28 11:27:20;;;;;;;7.63;6.43;;;4.30;92.10;;;;;;5044796;28;20497;-83
2021/11/28 11:29:49;;;;;;;7.05;5.90;;;4.00;91.60;;;;;;5054924;28;20037;-84
2021/11/28 11:32:23;;;;;;;7.75;6.95;;;3.80;92.90;;;;;;5056315;28;20484;-84
2021/11/28 11:34:53;;;;;;;7.30;6.43;;;3.90;93.10;;;;;;5053827;28;20017;-83
2021/11/28 11:37:20;;;;;;;7.13;6.40;;;4.20;92.20;;;;;;5054723;28;20420;-83
2021/11/28 11:39:48;;;;;;;7.30;6.13;;;4.30;92.80;;;;;;5058255;28;20393;-83
2021/11/28 11:42:17;;;;;;;8.35;6.75;;;4.30;92.80;;;;;;5056214;28;20028;-84
2021/11/28 11:44:44;;;;;;;8.32;7.15;;;4.70;92.40;;;;;;5046514;28;20025;-83
2021/11/28 11:47:10;;;;;;;10.52;6.93;;;4.30;92.60;;;;;;5056178;28;20473;-84
2021/11/28 11:49:41;;;;;;;7.55;6.75;;;4.40;91.50;;;;;;5035600;28;20046;-84
2021/11/28 11:52:09;;;;;;;8.73;6.03;;;4.40;92.40;;;;;;5065650;28;20053;-84
2021/11/28 11:54:46;;;;;;;8.73;7.53;;;4.50;92.30;;;;;;5056199;28;20041;-84
2021/11/28 11:57:38;;;;;;;8.90;7.65;;;4.60;92.20;;;;;;5055873;28;20021;-83
2021/11/28 12:00:07;;;;;;;8.50;7.30;;;4.30;92.50;;;;;;5056150;28;20029;-83
2021/11/28 12:02:44;;;;;;;11.18;8.23;;;4.30;92.20;;;;;;5055942;28;20025;-83
2021/11/28 12:05:24;;;;;;;8.77;7.38;;;4.50;92.70;;;;;;5054131;28;20441;-83
2021/11/28 12:07:54;;;;;;;8.60;7.50;;;4.80;91.90;;;;;;5039100;28;20071;-83
2021/11/28 12:10:30;;;;;;;10.38;7.43;;;4.80;92.20;;;;;;5053634;28;20124;-84
2021/11/28 12:12:58;;;;;;;8.68;6.65;;;4.30;93.40;;;;;;5057151;28;20029;-83
2021/11/28 12:15:29;;;;;;;9.68;7.10;;;4.50;93.30;;;;;;5055770;28;20135;-83
2021/11/28 12:17:57;;;;;;;8.40;7.07;;;4.80;93.00;;;;;;5055563;28;20105;-83
2021/11/28 12:20:51;;;;;;;10.23;7.20;;;4.90;93.20;;;;;;5055371;28;20028;-83
2021/11/28 12:24:06;;;;;;;9.45;7.97;;;4.60;92.80;;;;;;5041752;28;20028;-84
2021/11/28 12:26:31;;;;;;;10.07;6.95;;;4.40;93.00;;;;;;5042317;28;20041;-83
2021/11/28 12:29:14;;;;;;;10.27;8.27;;;4.50;93.40;;;;;;5053452;28;20523;-83
2021/11/28 12:31:49;;;;;;;10.20;7.70;;;4.40;93.60;;;;;;5034372;28;20471;-83
2021/11/28 12:34:26;;;;;;;8.50;6.93;;;4.50;93.70;;;;;;5054855;28;20040;-83
2021/11/28 12:36:57;;;;;;;4.63;3.67;;;4.60;93.30;;;;;;5055204;28;20052;-84
2021/11/28 12:39:24;;;;;;;6.00;2.88;;;4.60;93.30;;;;;;5046402;28;20452;-83
2021/11/28 12:42:03;;;;;;;2.85;2.55;;;5.00;93.00;;;;;;5055332;28;20025;-83
2021/11/28 12:44:31;;;;;;;2.40;1.83;;;4.70;93.00;;;;;;5053694;28;20025;-83
2021/11/28 12:47:02;;;;;;;2.53;1.70;;;5.00;92.70;;;;;;5052198;28;20032;-83
2021/11/28 12:49:29;;;;;;;2.10;1.40;;;4.60;92.70;;;;;;5051739;28;20033;-83
2021/11/28 12:52:15;;;;;;;1.70;1.60;;;4.60;92.40;;;;;;5056919;28;20033;-83
2021/11/28 12:54:42;;;;;;;2.17;1.80;;;4.80;93.00;;;;;;5053082;28;20045;-84
2021/11/28 12:57:20;;;;;;;2.15;1.88;;;4.80;92.20;;;;;;5055186;28;20103;-84
2021/11/28 13:00:23;;;;;;;1.60;1.50;;;4.90;92.00;;;;;;5054930;28;20440;-83
2021/11/28 13:02:52;;;;;;;2.88;2.22;;;5.00;92.00;;;;;;5054550;28;20017;-84
2021/11/28 13:05:30;;;;;;;3.75;2.65;;;4.90;92.50;;;;;;5055139;28;20079;-83
2021/11/28 13:08:15;;;;;;;2.33;2.00;;;5.20;92.40;;;;;;5052327;28;20024;-84